Time;durP1;ratioP1;P1;durP2;ratioP2;P2;SDS_P1;SDS_P2;PMS_P1;PMS_P2;Temp;Humidity;BMP_temperature;BMP_pressure;BME280_temperature;BME280_humidity;BME280_pressure;Samples;Min_cycle;Max_cycle;Signal;HPM_P1;HPM_P2
2022/11/01 00:00:20;;;;;;;20.70;11.55;;;10.50;99.90;;;;;;5036174;28;20446;-74
2022/11/01 00:02:45;;;;;;;18.33;11.77;;;10.50;99.90;;;;;;5035465;28;20100;-74
2022/11/01 00:05:11;;;;;;;21.33;11.90;;;10.50;99.90;;;;;;5018222;28;20067;-75
2022/11/01 00:07:37;;;;;;;20.92;11.52;;;10.50;99.90;;;;;;5036048;28;20030;-75
2022/11/01 00:10:02;;;;;;;23.08;12.10;;;10.50;99.90;;;;;;5017806;28;20462;-75
2022/11/01 00:12:30;;;;;;;19.42;11.52;;;10.50;99.90;;;;;;5035315;28;20033;-74
2022/11/01 00:14:56;;;;;;;23.23;12.48;;;10.50;99.90;;;;;;5035176;28;20026;-75
2022/11/01 00:17:22;;;;;;;20.42;11.98;;;10.50;99.90;;;;;;5017467;28;20033;-75
2022/11/01 00:19:47;;;;;;;18.98;11.25;;;10.50;99.90;;;;;;5017712;28;20108;-75
2022/11/01 00:22:13;;;;;;;19.45;11.57;;;10.50;99.90;;;;;;5017291;28;20036;-74
2022/11/01 00:24:38;;;;;;;23.13;12.48;;;10.50;99.90;;;;;;5035011;28;20037;-74
2022/11/01 00:27:04;;;;;;;22.92;10.90;;;10.50;99.90;;;;;;5017166;28;20028;-74
2022/11/01 00:29:30;;;;;;;22.25;11.48;;;10.50;99.90;;;;;;5034645;28;20032;-74
2022/11/01 00:31:55;;;;;;;21.85;10.52;;;10.50;99.90;;;;;;5034908;28;20385;-74
2022/11/01 00:34:21;;;;;;;21.92;11.25;;;10.50;99.90;;;;;;5017115;28;20389;-74
2022/11/01 00:36:47;;;;;;;18.52;11.07;;;10.50;99.90;;;;;;5034644;28;20029;-74
2022/11/01 00:39:14;;;;;;;17.52;10.80;;;10.50;99.90;;;;;;5017044;28;20037;-74
2022/11/01 00:41:39;;;;;;;16.33;9.88;;;10.50;99.90;;;;;;5034692;28;20025;-74
2022/11/01 00:44:05;;;;;;;17.02;10.95;;;10.50;99.90;;;;;;5034501;28;20138;-74
2022/11/01 00:46:32;;;;;;;20.15;10.80;;;10.50;99.90;;;;;;5034342;28;20029;-74
2022/11/01 00:48:58;;;;;;;15.40;9.95;;;10.50;99.90;;;;;;5016806;28;20025;-73
2022/11/01 00:51:23;;;;;;;16.30;10.02;;;10.50;99.90;;;;;;5017431;28;20032;-74
2022/11/01 00:53:49;;;;;;;18.77;10.52;;;10.50;99.90;;;;;;5034498;28;20018;-74
2022/11/01 00:56:15;;;;;;;16.95;10.20;;;10.50;99.90;;;;;;5034403;28;20100;-74
2022/11/01 00:58:41;;;;;;;20.70;10.57;;;10.40;99.90;;;;;;5034431;28;20025;-74
2022/11/01 01:01:06;;;;;;;22.23;10.07;;;10.50;99.90;;;;;;5016607;28;20446;-74
2022/11/01 01:03:32;;;;;;;16.60;8.93;;;10.50;99.90;;;;;;5034280;28;20033;-74
2022/11/01 01:05:58;;;;;;;14.40;9.35;;;10.50;99.90;;;;;;5034247;28;20035;-74
2022/11/01 01:08:24;;;;;;;17.40;9.15;;;10.50;99.90;;;;;;5016458;28;20072;-74
2022/11/01 01:10:50;;;;;;;17.58;9.70;;;10.50;99.90;;;;;;5016200;28;20029;-74
2022/11/01 01:13:16;;;;;;;19.98;10.60;;;10.50;99.90;;;;;;5016549;28;20095;-74
2022/11/01 01:15:42;;;;;;;16.52;10.40;;;10.50;99.90;;;;;;5016074;28;20466;-74
2022/11/01 01:18:09;;;;;;;19.20;10.73;;;10.60;99.90;;;;;;5034428;28;20101;-74
2022/11/01 01:20:35;;;;;;;17.10;9.18;;;10.50;99.90;;;;;;5016562;28;20025;-74
2022/11/01 01:23:01;;;;;;;17.75;10.68;;;10.50;99.90;;;;;;5016620;28;20021;-74
2022/11/01 01:25:26;;;;;;;15.88;9.60;;;10.50;99.90;;;;;;5034055;28;20034;-73
2022/11/01 01:27:53;;;;;;;15.82;9.27;;;10.60;99.90;;;;;;5035291;28;20051;-73
2022/11/01 01:30:19;;;;;;;16.85;10.35;;;10.50;99.90;;;;;;5018420;28;20065;-73
2022/11/01 01:32:44;;;;;;;15.98;9.20;;;10.50;99.90;;;;;;5018182;28;20026;-73
2022/11/01 01:35:10;;;;;;;16.13;9.32;;;10.50;99.90;;;;;;5035600;28;20049;-74
2022/11/01 01:37:36;;;;;;;14.50;8.75;;;10.50;99.90;;;;;;5035357;28;20034;-74
2022/11/01 01:40:03;;;;;;;13.85;8.82;;;10.50;99.90;;;;;;5016884;28;20033;-73
2022/11/01 01:42:33;;;;;;;16.48;8.68;;;10.40;99.90;;;;;;5016315;28;20057;-73
2022/11/01 01:44:58;;;;;;;13.38;8.13;;;10.50;99.90;;;;;;5015923;28;20052;-73
2022/11/01 01:47:29;;;;;;;14.55;9.10;;;10.50;99.90;;;;;;5033529;28;20100;-73
2022/11/01 01:50:18;;;;;;;16.70;9.68;;;10.50;99.90;;;;;;5033875;28;20029;-73
2022/11/01 01:53:00;;;;;;;15.40;9.13;;;10.50;99.90;;;;;;5033550;28;20030;-73
2022/11/01 01:55:44;;;;;;;13.30;9.38;;;10.50;99.90;;;;;;5015958;28;20079;-73
2022/11/01 01:58:12;;;;;;;14.90;8.90;;;10.50;99.90;;;;;;5033491;28;20025;-73
2022/11/01 02:00:38;;;;;;;18.33;10.32;;;10.50;99.90;;;;;;5033527;28;20105;-74
2022/11/01 02:03:05;;;;;;;16.08;10.57;;;10.50;99.90;;;;;;5033889;28;20079;-74
2022/11/01 02:05:50;;;;;;;16.42;10.38;;;10.50;99.90;;;;;;5033657;28;20083;-73
2022/11/01 02:08:25;;;;;;;15.60;9.50;;;10.50;99.90;;;;;;5033778;28;20025;-74
2022/11/01 02:10:52;;;;;;;18.77;10.68;;;10.50;99.90;;;;;;5033696;28;20530;-73
2022/11/01 02:13:18;;;;;;;17.10;10.52;;;10.50;99.90;;;;;;5034615;28;20092;-74
2022/11/01 02:15:55;;;;;;;17.00;10.50;;;10.50;99.90;;;;;;5019414;28;20129;-75
2022/11/01 02:18:31;;;;;;;14.93;10.00;;;10.50;99.90;;;;;;5036122;28;20086;-74
2022/11/01 02:21:26;;;;;;;16.70;10.07;;;10.50;99.90;;;;;;5037202;28;20075;-74
2022/11/01 02:24:13;;;;;;;15.32;9.35;;;10.50;99.90;;;;;;5017957;28;20025;-74
2022/11/01 02:27:02;;;;;;;14.93;8.70;;;10.50;99.90;;;;;;5018114;28;20026;-73
2022/11/01 02:29:27;;;;;;;14.95;9.50;;;10.40;99.90;;;;;;5017450;28;20500;-74
2022/11/01 02:32:23;;;;;;;16.60;9.85;;;10.40;99.90;;;;;;5016447;28;20021;-73
2022/11/01 02:35:00;;;;;;;13.93;9.00;;;10.40;99.90;;;;;;5034018;28;20021;-73
2022/11/01 02:37:28;;;;;;;19.23;10.15;;;10.50;99.90;;;;;;5016702;28;20026;-74
2022/11/01 02:40:04;;;;;;;15.13;9.23;;;10.40;99.90;;;;;;5015926;28;20033;-73
2022/11/01 02:42:41;;;;;;;14.18;9.30;;;10.50;99.90;;;;;;5016182;28;20029;-73
2022/11/01 02:45:44;;;;;;;15.00;9.80;;;10.50;99.90;;;;;;5015898;28;20473;-74
2022/11/01 02:48:10;;;;;;;15.13;9.10;;;10.50;99.90;;;;;;5033181;28;20390;-73
2022/11/01 02:50:55;;;;;;;15.60;10.07;;;10.50;99.90;;;;;;5033384;28;20032;-72
2022/11/01 02:53:21;;;;;;;13.90;8.50;;;10.50;99.90;;;;;;5033037;28;20045;-74
2022/11/01 02:55:49;;;;;;;11.80;7.70;;;10.40;99.90;;;;;;5032843;28;20392;-73
2022/11/01 02:58:22;;;;;;;14.50;8.80;;;10.40;99.90;;;;;;5016188;28;20068;-73
2022/11/01 03:00:48;;;;;;;14.00;8.90;;;10.40;99.90;;;;;;5018949;28;20462;-73
2022/11/01 03:03:16;;;;;;;16.38;8.45;;;10.40;99.90;;;;;;5019080;28;20079;-74
2022/11/01 03:05:53;;;;;;;14.10;8.50;;;10.40;99.90;;;;;;5036643;28;20043;-73
2022/11/01 03:08:30;;;;;;;18.13;9.05;;;10.40;99.90;;;;;;5018925;28;20461;-73
2022/11/01 03:11:05;;;;;;;15.68;9.10;;;10.40;99.90;;;;;;5019221;28;20029;-74
2022/11/01 03:13:56;;;;;;;16.58;9.65;;;10.40;99.90;;;;;;5036508;28;20035;-74
2022/11/01 03:16:50;;;;;;;12.85;8.20;;;10.40;99.90;;;;;;5018610;28;20416;-73
2022/11/01 03:19:34;;;;;;;12.85;8.45;;;10.40;99.90;;;;;;5036523;28;20084;-74
2022/11/01 03:22:17;;;;;;;14.38;9.35;;;10.50;99.90;;;;;;5018655;28;20028;-73
2022/11/01 03:24:45;;;;;;;12.98;8.93;;;10.50;99.90;;;;;;5036260;28;20077;-74
2022/11/01 03:27:37;;;;;;;11.65;8.43;;;10.50;99.90;;;;;;5018561;28;20033;-73
2022/11/01 03:30:08;;;;;;;13.05;8.07;;;10.40;99.90;;;;;;5018493;28;20022;-73
2022/11/01 03:32:40;;;;;;;14.75;8.50;;;10.40;99.90;;;;;;5036188;28;20026;-73
2022/11/01 03:35:09;;;;;;;13.00;8.10;;;10.40;99.90;;;;;;5018259;28;20128;-73
2022/11/01 03:37:39;;;;;;;15.02;8.90;;;10.40;99.90;;;;;;5036248;28;20030;-73
2022/11/01 03:40:08;;;;;;;15.75;9.73;;;10.50;99.90;;;;;;5035588;28;20021;-73
2022/11/01 03:42:36;;;;;;;17.13;9.45;;;10.50;99.90;;;;;;5035576;28;20396;-73
2022/11/01 03:45:08;;;;;;;14.07;9.30;;;10.40;99.90;;;;;;5017779;28;20076;-73
2022/11/01 03:47:34;;;;;;;15.27;9.98;;;10.40;99.90;;;;;;5035604;28;20025;-73
2022/11/01 03:50:16;;;;;;;19.52;10.38;;;10.40;99.90;;;;;;5017882;28;20022;-73
2022/11/01 03:52:42;;;;;;;21.05;10.60;;;10.40;99.90;;;;;;5035385;28;20091;-73
2022/11/01 03:55:17;;;;;;;23.15;10.68;;;10.40;99.90;;;;;;5017749;28;20469;-73
2022/11/01 03:57:47;;;;;;;16.80;10.30;;;10.40;99.90;;;;;;5017867;28;20029;-73
2022/11/01 04:00:15;;;;;;;16.20;10.80;;;10.50;99.90;;;;;;5035504;28;20104;-74
2022/11/01 04:02:42;;;;;;;17.05;10.20;;;10.40;99.90;;;;;;5017433;28;20021;-73
2022/11/01 04:05:08;;;;;;;17.92;10.55;;;10.40;99.90;;;;;;5035518;28;20030;-73
2022/11/01 04:07:34;;;;;;;22.63;11.38;;;10.40;99.90;;;;;;5017880;28;20036;-73
2022/11/01 04:10:00;;;;;;;19.02;10.60;;;10.40;99.90;;;;;;5035204;28;20026;-73
2022/11/01 04:12:25;;;;;;;16.52;10.63;;;10.40;99.90;;;;;;5017205;28;20029;-73
2022/11/01 04:20:34;;;;;;;17.85;9.80;;;10.50;99.90;;;;;;5035206;28;20041;-73
2022/11/01 04:23:06;;;;;;;17.40;9.98;;;10.40;99.90;;;;;;5017802;28;20053;-73
2022/11/01 04:25:33;;;;;;;17.58;10.02;;;10.50;99.90;;;;;;5017286;28;20489;-73
2022/11/01 04:27:59;;;;;;;16.67;9.85;;;10.50;99.90;;;;;;5017414;28;20022;-73
2022/11/01 04:30:26;;;;;;;15.13;9.32;;;10.50;99.90;;;;;;5017201;28;20140;-73
2022/11/01 04:32:52;;;;;;;18.02;10.27;;;10.50;99.90;;;;;;5034854;28;20081;-73
2022/11/01 04:35:18;;;;;;;16.15;9.75;;;10.50;99.90;;;;;;5016774;28;20032;-74
2022/11/01 04:37:44;;;;;;;19.55;10.75;;;10.50;99.90;;;;;;5017093;28;20041;-74
2022/11/01 04:40:12;;;;;;;17.55;10.70;;;10.50;99.90;;;;;;5034763;28;20029;-73
2022/11/01 04:42:38;;;;;;;15.68;9.25;;;10.50;99.90;;;;;;5034722;28;20422;-73
2022/11/01 04:45:04;;;;;;;14.75;8.95;;;10.50;99.90;;;;;;5034267;28;20139;-73
2022/11/01 04:47:30;;;;;;;17.67;9.13;;;10.50;99.90;;;;;;5034932;28;20045;-73
2022/11/01 04:49:56;;;;;;;15.73;9.18;;;10.50;99.90;;;;;;5034556;28;20029;-73
2022/11/01 04:52:22;;;;;;;14.07;9.50;;;10.50;99.90;;;;;;5016796;28;20037;-73
2022/11/01 04:54:48;;;;;;;12.45;9.10;;;10.50;99.90;;;;;;5016991;28;20096;-73
2022/11/01 04:57:23;;;;;;;17.42;8.73;;;10.50;99.90;;;;;;5034176;28;20033;-73
2022/11/01 04:59:53;;;;;;;12.73;8.25;;;10.50;99.90;;;;;;5017299;28;20032;-73
2022/11/01 05:02:20;;;;;;;13.90;9.00;;;10.50;99.90;;;;;;5034240;28;20029;-74
2022/11/01 05:04:46;;;;;;;14.80;8.13;;;10.50;99.90;;;;;;5016764;28;20112;-73
2022/11/01 05:07:13;;;;;;;13.63;8.90;;;10.50;99.90;;;;;;5016545;28;20057;-73
2022/11/01 05:09:38;;;;;;;15.23;9.32;;;10.50;99.90;;;;;;5034693;28;20412;-73
2022/11/01 05:12:04;;;;;;;16.63;8.65;;;10.50;99.90;;;;;;5034328;28;20029;-73
2022/11/01 05:14:30;;;;;;;15.70;9.63;;;10.50;99.90;;;;;;5016340;28;20029;-73
2022/11/01 05:16:56;;;;;;;15.80;8.48;;;10.50;99.90;;;;;;5016454;28;20080;-73
2022/11/01 05:19:22;;;;;;;13.63;8.73;;;10.50;99.90;;;;;;5016457;28;20025;-75
2022/11/01 05:21:48;;;;;;;16.80;9.55;;;10.50;99.90;;;;;;5033557;28;20036;-73
2022/11/01 05:24:14;;;;;;;13.88;8.88;;;10.60;99.90;;;;;;5016359;28;20053;-73
2022/11/01 05:26:39;;;;;;;15.15;9.73;;;10.50;99.90;;;;;;5033996;28;20072;-73
2022/11/01 05:29:05;;;;;;;14.45;9.27;;;10.50;99.90;;;;;;5016284;28;20022;-73
2022/11/01 05:31:31;;;;;;;18.05;9.65;;;10.50;99.90;;;;;;5016322;28;20079;-73
2022/11/01 05:33:56;;;;;;;15.70;8.48;;;10.50;99.90;;;;;;5033777;28;20389;-73
2022/11/01 05:36:22;;;;;;;15.68;9.45;;;10.50;99.90;;;;;;5016295;28;20029;-73
2022/11/01 05:38:48;;;;;;;15.48;9.20;;;10.50;99.90;;;;;;5016141;28;20611;-73
2022/11/01 05:41:13;;;;;;;16.48;9.55;;;10.50;99.90;;;;;;5033846;28;20053;-74
2022/11/01 05:43:39;;;;;;;15.02;9.45;;;10.60;99.90;;;;;;5033377;28;20025;-73
2022/11/01 05:46:06;;;;;;;17.60;10.65;;;10.60;99.90;;;;;;5016169;28;20385;-73
2022/11/01 05:48:32;;;;;;;16.92;10.50;;;10.50;99.90;;;;;;5016750;28;20426;-73
2022/11/01 05:50:57;;;;;;;18.17;10.48;;;10.50;99.90;;;;;;5016358;28;20453;-73
2022/11/01 05:53:23;;;;;;;18.17;10.13;;;10.50;99.90;;;;;;5033423;28;20072;-73
2022/11/01 05:55:49;;;;;;;19.83;11.00;;;10.50;99.90;;;;;;5015650;28;20056;-73
2022/11/01 05:58:14;;;;;;;16.65;10.10;;;10.50;99.90;;;;;;5033370;28;20067;-73
2022/11/01 06:00:40;;;;;;;20.20;11.48;;;10.60;99.90;;;;;;5015933;28;20025;-74
2022/11/01 06:03:06;;;;;;;19.38;10.85;;;10.60;99.90;;;;;;5033947;28;20035;-75
2022/11/01 06:05:32;;;;;;;18.48;11.18;;;10.60;99.90;;;;;;5015916;28;20029;-73
2022/11/01 06:08:00;;;;;;;23.50;11.90;;;10.60;99.90;;;;;;5033764;28;20101;-75
2022/11/01 06:10:27;;;;;;;20.50;11.60;;;10.60;99.90;;;;;;5033630;28;20120;-75
2022/11/01 06:12:53;;;;;;;19.35;10.80;;;10.60;99.90;;;;;;5015826;28;20318;-74
2022/11/01 06:15:19;;;;;;;20.00;11.07;;;10.60;99.90;;;;;;5015764;28;20030;-75
2022/11/01 06:17:45;;;;;;;19.25;10.15;;;10.60;99.90;;;;;;5034331;28;20484;-76
2022/11/01 06:20:11;;;;;;;17.65;9.95;;;10.70;99.90;;;;;;5016685;28;20057;-75
2022/11/01 06:22:37;;;;;;;19.75;10.65;;;10.70;99.90;;;;;;5035037;28;20088;-76
2022/11/01 06:25:04;;;;;;;16.27;9.93;;;10.70;99.90;;;;;;5035705;28;20068;-75
2022/11/01 06:27:30;;;;;;;20.45;10.65;;;10.70;99.90;;;;;;5035465;28;20034;-76
2022/11/01 06:29:55;;;;;;;16.60;9.93;;;10.70;99.90;;;;;;5017082;28;20021;-75
2022/11/01 06:32:21;;;;;;;17.92;10.35;;;10.70;99.90;;;;;;5016477;28;20032;-77
2022/11/01 06:34:46;;;;;;;18.50;10.85;;;10.70;99.90;;;;;;5019237;28;20470;-77
2022/11/01 06:37:12;;;;;;;15.73;10.05;;;10.70;99.90;;;;;;5021085;28;20052;-77
2022/11/01 06:39:38;;;;;;;19.17;11.98;;;10.70;99.90;;;;;;5021052;28;20037;-76
2022/11/01 06:42:03;;;;;;;18.70;10.45;;;10.70;99.90;;;;;;5020174;28;20025;-77
2022/11/01 06:44:29;;;;;;;21.52;11.45;;;10.60;99.90;;;;;;5037114;28;20124;-77
2022/11/01 06:46:55;;;;;;;22.98;11.40;;;10.60;99.90;;;;;;5019958;28;20095;-78
2022/11/01 06:49:21;;;;;;;18.48;11.18;;;10.70;99.90;;;;;;5019669;28;20508;-75
2022/11/01 06:51:46;;;;;;;17.67;10.57;;;10.70;99.90;;;;;;5036939;28;20025;-74
2022/11/01 06:54:12;;;;;;;19.13;11.10;;;10.80;99.90;;;;;;5036585;28;20029;-75
2022/11/01 06:56:38;;;;;;;16.90;9.25;;;10.70;99.90;;;;;;5019197;28;20507;-76
2022/11/01 06:59:04;;;;;;;16.90;10.55;;;10.80;99.90;;;;;;5019201;28;20038;-58
2022/11/01 17:52:59;;;;;;;32.08;18.73;;;10.80;99.90;;;;;;5267410;23;21004;-76
2022/11/01 17:55:25;;;;;;;23.27;14.05;;;10.80;99.90;;;;;;4933191;29;20139;-83
2022/11/01 17:57:51;;;;;;;21.67;12.68;;;10.80;99.90;;;;;;4919719;29;20171;-78
2022/11/01 18:00:17;;;;;;;19.55;12.98;;;10.80;99.90;;;;;;4919755;29;20036;-79
2022/11/01 18:02:43;;;;;;;23.95;13.77;;;10.80;99.90;;;;;;4920049;29;20118;-75
2022/11/01 18:05:09;;;;;;;22.23;13.38;;;10.80;99.90;;;;;;4936772;29;20188;-84
2022/11/01 18:07:38;;;;;;;23.65;13.88;;;10.80;99.90;;;;;;4936988;29;20028;-81
2022/11/01 18:10:34;;;;;;;20.23;14.13;;;10.80;99.90;;;;;;4920053;29;20114;-81
2022/11/01 18:13:22;;;;;;;20.38;13.73;;;10.70;99.90;;;;;;4920291;29;20044;-81
2022/11/01 18:16:04;;;;;;;20.45;13.88;;;10.70;99.90;;;;;;4936547;29;20042;-81
2022/11/01 18:19:07;;;;;;;24.23;14.10;;;10.70;99.90;;;;;;4920073;29;20079;-83
2022/11/01 18:22:13;;;;;;;21.13;14.57;;;10.70;99.90;;;;;;4900385;29;20067;-84
2022/11/01 18:25:18;;;;;;;26.05;14.98;;;10.70;99.90;;;;;;4935907;29;20111;-83
2022/11/01 18:27:44;;;;;;;21.02;14.02;;;10.70;99.90;;;;;;4936516;29;20523;-79
2022/11/01 18:30:17;;;;;;;20.98;14.57;;;10.80;99.90;;;;;;4940027;29;20015;-61
2022/11/01 18:33:00;;;;;;;19.17;13.68;;;10.80;99.90;;;;;;4939313;29;20041;-61
2022/11/01 18:35:45;;;;;;;21.27;14.68;;;10.80;99.90;;;;;;4940298;29;20032;-62
2022/11/01 18:38:32;;;;;;;24.33;14.45;;;10.80;99.90;;;;;;4940076;29;20027;-61
2022/11/01 18:41:00;;;;;;;20.98;14.93;;;10.80;99.90;;;;;;4938028;29;20023;-61
2022/11/01 18:43:31;;;;;;;27.33;15.95;;;10.80;99.90;;;;;;4939743;29;20371;-61
2022/11/01 18:45:57;;;;;;;19.38;13.95;;;10.80;99.90;;;;;;4922947;29;20050;-79
2022/11/01 18:48:25;;;;;;;17.80;13.10;;;10.80;99.90;;;;;;4922937;29;20114;-79
2022/11/01 18:51:01;;;;;;;20.13;13.43;;;10.80;99.90;;;;;;4939136;29;20020;-78
2022/11/01 18:53:31;;;;;;;21.08;13.38;;;10.80;99.90;;;;;;4923004;29;20027;-79
2022/11/01 18:56:23;;;;;;;19.23;12.68;;;10.70;99.90;;;;;;4922734;29;20047;-77
2022/11/01 18:58:51;;;;;;;19.80;13.18;;;10.70;99.90;;;;;;4939847;29;20032;-85
2022/11/01 19:01:32;;;;;;;18.38;13.15;;;10.70;99.90;;;;;;4922755;29;20032;-79
2022/11/01 19:04:23;;;;;;;24.50;14.73;;;10.70;99.90;;;;;;4938994;29;20028;-78
2022/11/01 19:06:49;;;;;;;20.27;13.77;;;10.70;99.90;;;;;;4922681;29;20040;-80
2022/11/01 19:09:23;;;;;;;21.20;14.32;;;10.70;99.90;;;;;;4939536;29;20031;-79
2022/11/01 19:11:58;;;;;;;21.77;13.68;;;10.70;99.90;;;;;;4939799;29;20052;-78
2022/11/01 19:14:25;;;;;;;17.40;13.80;;;10.60;99.90;;;;;;4922263;29;20028;-77
2022/11/01 19:16:52;;;;;;;22.88;15.23;;;10.60;99.90;;;;;;4940806;29;20039;-78
2022/11/01 19:19:20;;;;;;;20.38;14.50;;;10.50;99.90;;;;;;4940108;29;20201;-84
2022/11/01 19:21:46;;;;;;;23.05;14.77;;;10.60;99.90;;;;;;4940766;29;20031;-84
2022/11/01 19:24:37;;;;;;;17.73;13.07;;;10.50;99.90;;;;;;4923064;29;20380;-80
2022/11/01 19:27:17;;;;;;;19.75;12.95;;;10.50;99.90;;;;;;4939421;29;20050;-81
2022/11/01 19:29:43;;;;;;;21.15;14.02;;;10.50;99.90;;;;;;4922234;29;20187;-81
2022/11/01 19:32:13;;;;;;;24.48;14.07;;;10.50;99.90;;;;;;4921459;29;20078;-80
2022/11/01 19:34:40;;;;;;;22.45;14.02;;;10.50;99.90;;;;;;4922143;29;20063;-80
2022/11/01 19:37:19;;;;;;;24.35;14.50;;;10.50;99.90;;;;;;4921732;29;20490;-76
2022/11/01 19:39:46;;;;;;;19.90;14.45;;;10.50;99.90;;;;;;4938696;29;20024;-80
2022/11/01 19:42:27;;;;;;;22.00;13.90;;;10.50;99.90;;;;;;4922133;29;20379;-79
2022/11/01 19:44:57;;;;;;;21.75;14.23;;;10.50;99.90;;;;;;4938958;29;20028;-82
2022/11/01 19:47:42;;;;;;;26.38;15.57;;;10.50;99.90;;;;;;4921950;29;20031;-82
2022/11/01 19:50:16;;;;;;;24.60;16.33;;;10.50;99.90;;;;;;4939453;29;20032;-84
2022/11/01 19:52:43;;;;;;;32.45;16.33;;;10.60;99.90;;;;;;4922166;29;20031;-84
2022/11/01 19:55:31;;;;;;;23.33;15.68;;;10.60;99.90;;;;;;4922068;29;20055;-84
2022/11/01 19:57:58;;;;;;;23.83;15.20;;;10.60;99.90;;;;;;4938867;29;20028;-83
2022/11/01 20:00:27;;;;;;;22.20;14.07;;;10.60;99.90;;;;;;4922354;29;20083;-86
2022/11/01 20:02:57;;;;;;;21.25;14.43;;;10.60;99.90;;;;;;4939115;29;20023;-84
2022/11/01 20:05:33;;;;;;;22.23;14.98;;;10.60;99.90;;;;;;4939445;29;20027;-84
2022/11/01 20:08:20;;;;;;;24.45;15.93;;;10.60;99.90;;;;;;4922540;29;20043;-84
2022/11/01 20:10:46;;;;;;;25.10;16.42;;;10.60;99.90;;;;;;4938964;29;20083;-81
2022/11/01 20:13:14;;;;;;;24.42;15.90;;;10.60;99.90;;;;;;4921991;29;20027;-83
2022/11/01 20:15:40;;;;;;;29.20;17.13;;;10.60;99.90;;;;;;4937778;29;20035;-85
2022/11/01 20:18:06;;;;;;;27.42;15.82;;;10.60;99.90;;;;;;4922329;29;20034;-86
2022/11/01 20:20:32;;;;;;;24.42;16.70;;;10.70;99.90;;;;;;4921901;29;20034;-84
2022/11/01 20:22:58;;;;;;;24.65;16.50;;;10.70;99.90;;;;;;4938896;29;20028;-84
2022/11/01 20:25:28;;;;;;;25.58;16.45;;;10.70;99.90;;;;;;4938763;29;20032;-84
2022/11/01 20:27:54;;;;;;;26.13;16.20;;;10.70;99.90;;;;;;4922186;29;20032;-85
2022/11/01 20:30:20;;;;;;;32.08;17.75;;;10.70;99.90;;;;;;4921846;29;20064;-86
2022/11/01 20:32:46;;;;;;;29.13;17.50;;;10.70;99.90;;;;;;4921549;29;20075;-86
2022/11/01 20:35:12;;;;;;;22.15;15.95;;;10.70;99.90;;;;;;4938478;29;20036;-85
2022/11/01 20:37:39;;;;;;;25.85;16.35;;;10.70;99.90;;;;;;4921540;29;20547;-84
2022/11/01 20:40:06;;;;;;;31.30;17.98;;;10.70;99.90;;;;;;4938575;29;20035;-85
2022/11/01 20:42:32;;;;;;;31.83;18.85;;;10.70;99.90;;;;;;4921683;29;20059;-85
2022/11/01 20:44:58;;;;;;;27.30;17.08;;;10.60;99.90;;;;;;4921715;29;20067;-85
2022/11/01 20:47:24;;;;;;;29.42;17.48;;;10.60;99.90;;;;;;4921765;29;20031;-83
2022/11/01 20:49:50;;;;;;;27.65;17.33;;;10.60;99.90;;;;;;4938802;29;20031;-82
2022/11/01 20:52:16;;;;;;;26.85;17.85;;;10.60;99.90;;;;;;4921162;29;20490;-84
2022/11/01 20:54:43;;;;;;;27.23;17.00;;;10.60;99.90;;;;;;4923708;29;20067;-81
2022/11/01 20:57:10;;;;;;;31.70;19.17;;;10.60;99.90;;;;;;4940648;29;20047;-81
2022/11/01 20:59:36;;;;;;;29.00;19.38;;;10.60;99.90;;;;;;4924061;29;20126;-81
2022/11/01 21:02:04;;;;;;;29.15;19.85;;;10.60;99.90;;;;;;4943290;29;20032;-79
2022/11/01 21:04:32;;;;;;;28.98;18.10;;;10.60;99.90;;;;;;4923338;29;20099;-83
2022/11/01 21:06:58;;;;;;;28.50;18.02;;;10.60;99.90;;;;;;4902395;29;20091;-84
2022/11/01 21:09:33;;;;;;;28.13;17.42;;;10.60;99.90;;;;;;4918404;29;20032;-83
2022/11/01 21:11:59;;;;;;;24.40;16.77;;;10.60;99.90;;;;;;4919790;29;20035;-84
2022/11/01 21:14:35;;;;;;;23.98;17.52;;;10.60;99.90;;;;;;4903868;29;20028;-84
2022/11/01 21:17:13;;;;;;;26.17;16.52;;;10.60;99.90;;;;;;4904433;29;20044;-84
2022/11/01 21:19:39;;;;;;;23.05;15.07;;;10.60;99.90;;;;;;4901839;29;20428;-83
2022/11/01 21:22:13;;;;;;;21.35;16.00;;;10.50;99.90;;;;;;4901965;29;20032;-85
2022/11/01 21:24:41;;;;;;;26.48;15.73;;;10.60;99.90;;;;;;4902054;29;20066;-86
2022/11/01 21:27:09;;;;;;;29.00;17.55;;;10.60;99.90;;;;;;4918659;29;20116;-86
2022/11/01 21:29:38;;;;;;;28.05;17.13;;;10.60;99.90;;;;;;4902014;29;20071;-85
2022/11/01 21:32:20;;;;;;;21.90;16.15;;;10.60;99.90;;;;;;4901740;29;20055;-84
2022/11/01 21:34:47;;;;;;;28.05;16.20;;;10.60;99.90;;;;;;4901898;29;20036;-86
2022/11/01 21:37:13;;;;;;;30.67;17.17;;;10.60;99.90;;;;;;4918419;29;20032;-83
2022/11/01 21:39:39;;;;;;;25.05;16.23;;;10.60;99.90;;;;;;4901960;29;20385;-84
2022/11/01 21:42:31;;;;;;;23.90;15.80;;;10.60;99.90;;;;;;4918311;29;20137;-86
2022/11/01 21:44:57;;;;;;;29.50;16.25;;;10.70;99.90;;;;;;4901927;29;20035;-85
2022/11/01 21:47:29;;;;;;;24.38;16.40;;;10.60;99.90;;;;;;4901659;29;20475;-85
2022/11/01 21:49:55;;;;;;;26.05;15.95;;;10.70;99.90;;;;;;4901619;29;20038;-85
2022/11/01 21:52:21;;;;;;;26.13;16.38;;;10.70;99.90;;;;;;4901468;29;20087;-84
2022/11/01 21:54:47;;;;;;;28.00;16.25;;;10.70;99.90;;;;;;4901005;29;20059;-85
2022/11/01 21:57:14;;;;;;;25.38;16.00;;;10.70;99.90;;;;;;4917981;29;20040;-83
2022/11/01 21:59:41;;;;;;;27.42;16.58;;;10.70;99.90;;;;;;4901473;29;20383;-86
2022/11/01 22:02:09;;;;;;;25.90;16.02;;;10.70;99.90;;;;;;4918061;29;20032;-82
2022/11/01 22:04:35;;;;;;;26.23;16.77;;;10.70;99.90;;;;;;4904238;29;20456;-84
2022/11/01 22:07:03;;;;;;;24.55;15.13;;;10.80;99.90;;;;;;4905786;29;20127;-85
2022/11/01 22:09:30;;;;;;;24.70;15.48;;;10.70;99.90;;;;;;4905134;29;20028;-80
2022/11/01 22:11:56;;;;;;;23.55;16.25;;;10.80;99.90;;;;;;4905146;29;20369;-85
2022/11/01 22:14:21;;;;;;;34.63;16.40;;;10.80;99.90;;;;;;4922112;29;20083;-85
2022/11/01 22:16:47;;;;;;;24.23;16.55;;;10.70;99.90;;;;;;4905182;29;20051;-84
2022/11/01 22:19:13;;;;;;;27.77;16.98;;;10.80;99.90;;;;;;4905369;29;20036;-86
2022/11/01 22:21:39;;;;;;;27.42;16.60;;;10.80;99.90;;;;;;4906142;29;20503;-86
2022/11/01 22:24:05;;;;;;;26.73;16.75;;;10.80;99.90;;;;;;4923391;29;20068;-82
2022/11/01 22:26:30;;;;;;;27.35;15.80;;;10.80;99.90;;;;;;4907263;29;20039;-80
2022/11/01 22:28:56;;;;;;;26.00;16.25;;;10.80;99.90;;;;;;4922658;29;20499;-87
2022/11/01 22:31:22;;;;;;;28.75;15.88;;;10.90;99.90;;;;;;4905526;29;20119;-85
2022/11/01 22:33:52;;;;;;;27.38;16.35;;;10.90;99.90;;;;;;4905301;29;20066;-86
2022/11/01 22:36:26;;;;;;;25.58;16.83;;;10.90;99.90;;;;;;4905054;29;20051;-85
2022/11/01 22:38:59;;;;;;;22.27;15.98;;;10.90;99.90;;;;;;4921940;29;20032;-87
2022/11/01 22:41:32;;;;;;;24.88;16.27;;;10.90;99.90;;;;;;4921758;29;20108;-86
2022/11/01 22:44:23;;;;;;;27.77;15.57;;;10.90;99.90;;;;;;4921561;29;20028;-86
2022/11/01 22:46:56;;;;;;;26.58;16.02;;;10.90;99.90;;;;;;4904648;29;20032;-84
2022/11/01 22:49:23;;;;;;;28.13;16.00;;;10.90;99.90;;;;;;4904681;29;20052;-81
2022/11/01 22:51:52;;;;;;;25.75;16.23;;;10.90;99.90;;;;;;4904961;29;20071;-81
2022/11/01 22:54:30;;;;;;;;;;;10.90;99.90;;;;;;4904468;29;20392;-79
2022/11/01 22:57:07;;;;;;;31.42;17.70;;;10.90;99.90;;;;;;4904570;29;19915;-84
2022/11/01 22:59:36;;;;;;;22.55;15.73;;;11.00;99.90;;;;;;4904677;29;20036;-81
2022/11/01 23:02:33;;;;;;;27.63;15.98;;;10.90;99.90;;;;;;4905050;29;20047;-82
2022/11/01 23:05:05;;;;;;;25.23;15.88;;;11.00;99.90;;;;;;4905976;29;20455;-83
2022/11/01 23:07:33;;;;;;;27.13;15.75;;;11.00;99.90;;;;;;4905621;29;20040;-82
2022/11/01 23:10:05;;;;;;;28.55;16.88;;;11.00;99.90;;;;;;4904655;29;20064;-81
2022/11/01 23:15:27;;;;;;;29.42;17.25;;;11.00;99.90;;;;;;4919819;29;20051;-82
2022/11/01 23:17:53;;;;;;;26.17;16.75;;;11.00;99.90;;;;;;4904100;29;20028;-82
2022/11/01 23:20:19;;;;;;;29.17;18.58;;;11.00;99.90;;;;;;4904093;29;20067;-80
2022/11/01 23:22:45;;;;;;;26.92;17.08;;;11.00;99.90;;;;;;4903821;29;20032;-80
2022/11/01 23:25:11;;;;;;;29.58;19.17;;;11.00;99.90;;;;;;4920869;29;20028;-75
2022/11/01 23:27:37;;;;;;;31.98;17.42;;;11.00;99.90;;;;;;4920387;29;20035;-81
2022/11/01 23:30:03;;;;;;;28.38;15.45;;;11.00;99.90;;;;;;4920438;29;20059;-82
2022/11/01 23:32:30;;;;;;;29.05;17.00;;;11.00;99.90;;;;;;4920415;29;20103;-81
2022/11/01 23:35:20;;;;;;;24.30;15.68;;;11.00;99.90;;;;;;4903517;29;20388;-81
2022/11/01 23:37:47;;;;;;;24.92;16.05;;;11.00;99.90;;;;;;4903392;29;20535;-82
2022/11/01 23:40:15;;;;;;;24.08;15.80;;;11.00;99.90;;;;;;4903406;29;20079;-82
2022/11/01 23:42:41;;;;;;;26.20;16.93;;;11.00;99.90;;;;;;4903554;29;20495;-82
2022/11/01 23:45:32;;;;;;;26.63;15.48;;;10.90;99.90;;;;;;4920183;29;20346;-82